FQCH

Chimoio Airport

Chimoio, Mozambique
TAF FQCH 162200Z 1700/1724 22010KT 5000 +TSRA BKN008 OVC015 SCT020CB BECMG 1706/1708 28008KT 9999 SCT020 BECMG 1712/1714 20010KT BECMG 1718/1720 26010KT TX29/1713Z TN20/1703Z
Issued Valid From Valid To
Jan-16 @ 22:00 UTC
(7 hours ago)
Jan-17 @ 00:00 UTC
(5 hours ago)
Jan-18 @ 00:00 UTC
(in 19 hours)
Jan-17 @ 00:00 to Jan-17 @ 06:00
TAF FQCH 162200Z 1700/1724 22010KT 5000 +TSRA BKN008 OVC015 SCT020CB
Wind Visibility Clouds Conditions
220° at 10 knots 5,005 meters
  • Broken at 800' AGL
  • Overcast at 1,500' AGL
  • Scattered at 2,000' AGL
  • Heavy Thunderstorm
  • Heavy Rain
Becoming Jan-17 @ 06:00 to Jan-17 @ 12:00
BECMG 1706/1708 28008KT 9999 SCT020
Wind Visibility Clouds Conditions
280° at 8 knots 10,000+ meters
  • Scattered at 2,000' AGL
  • Heavy Thunderstorm
  • Heavy Rain
Becoming Jan-17 @ 12:00 to Jan-17 @ 18:00
BECMG 1712/1714 20010KT
Wind Visibility Clouds Conditions
200° at 10 knots 10,000+ meters
  • Scattered at 2,000' AGL
  • Heavy Thunderstorm
  • Heavy Rain
Becoming Jan-17 @ 18:00 to Jan-18 @ 00:00
BECMG 1718/1720 26010KT TX29/1713Z TN20/1703Z
Wind Visibility Clouds Conditions
260° at 10 knots 10,000+ meters
  • Scattered at 2,000' AGL
  • Heavy Thunderstorm
  • Heavy Rain
TAF FQCH 162200Z 1700/1724 22010KT 5000 +TSRA BKN008 OVC015 SCT020CB BECMG 1706/1708 28008KT 9999 SCT020 BECMG 1712/1714 20010KT BECMG 1718/1720 26010KT TX29/1713Z TN20/1703Z
Issued Jan-16 @ 22:00 UTC
(7 hours ago)
Valid From Jan-17 @ 00:00 UTC
(5 hours ago)
Valid To Jan-18 @ 00:00 UTC
(in 19 hours)
Jan-17 @ 00:00 - Jan-17 @ 06:00
Wind Visibility
220° at 10 knots 5,005 meters
Clouds
  • Broken at 800' AGL
  • Overcast at 1,500' AGL
  • Scattered at 2,000' AGL
Conditions
  • Heavy Thunderstorm
  • Heavy Rain
Becoming Jan-17 @ 06:00 - Jan-17 @ 12:00
Wind Visibility
280° at 8 knots 10,000+ meters
Clouds
  • Scattered at 2,000' AGL
Conditions
  • Heavy Thunderstorm
  • Heavy Rain
Becoming Jan-17 @ 12:00 - Jan-17 @ 18:00
Wind Visibility
200° at 10 knots 10,000+ meters
Clouds
  • Scattered at 2,000' AGL
Conditions
  • Heavy Thunderstorm
  • Heavy Rain
Becoming Jan-17 @ 18:00 - Jan-18 @ 00:00
Wind Visibility
260° at 10 knots 10,000+ meters
Clouds
  • Scattered at 2,000' AGL
Conditions
  • Heavy Thunderstorm
  • Heavy Rain